National Weather Service Raw Text Product

Displaying AFOS PIL: TAFMCW Received: 2018-01-03 00:01 UTC


210 
FTUS43 KDMX 030001 CCA
TAFMCW
TAF COR
KMCW 030001Z 0300/0324 23018G25KT P6SM FEW030 SCT060 BKN120
      TEMPO 0300/0302 3SM -SN BKN025 OVC040
     FM030200 26015G22KT P6SM SCT030 BKN050
     FM030600 31016G25KT P6SM BKN020
     FM030900 33019G28KT P6SM BKN030=